sensor_id;sensor_type;location;lat;lon;timestamp;pressure;altitude;pressure_sealevel;temperature;humidity
28428;BME280;15662;49.128;8.520;2022-10-14T00:01:24;100627.41;;;19.95;57.07
28428;BME280;15662;49.128;8.520;2022-10-14T00:03:54;100626.34;;;19.98;57.11
28428;BME280;15662;49.128;8.520;2022-10-14T00:06:27;100630.84;;;19.97;56.89
28428;BME280;15662;49.128;8.520;2022-10-14T00:09:02;100619.13;;;19.98;56.91
28428;BME280;15662;49.128;8.520;2022-10-14T00:11:35;100621.72;;;20.00;57.14
28428;BME280;15662;49.128;8.520;2022-10-14T00:14:19;100619.13;;;19.98;56.83
28428;BME280;15662;49.128;8.520;2022-10-14T00:16:53;100631.63;;;19.99;57.18
28428;BME280;15662;49.128;8.520;2022-10-14T00:19:22;100630.69;;;20.00;57.03
28428;BME280;15662;49.128;8.520;2022-10-14T00:21:52;100634.50;;;19.96;57.27
28428;BME280;15662;49.128;8.520;2022-10-14T00:24:20;100637.09;;;19.98;57.09
28428;BME280;15662;49.128;8.520;2022-10-14T00:26:48;100629.31;;;19.93;56.94
28428;BME280;15662;49.128;8.520;2022-10-14T00:29:17;100633.81;;;19.93;57.28
28428;BME280;15662;49.128;8.520;2022-10-14T00:31:46;100636.41;;;19.94;57.27
28428;BME280;15662;49.128;8.520;2022-10-14T00:34:15;100636.41;;;19.94;57.02
28428;BME280;15662;49.128;8.520;2022-10-14T00:36:43;100634.59;;;19.95;57.25
28428;BME280;15662;49.128;8.520;2022-10-14T00:39:15;100639.19;;;19.93;57.11
28428;BME280;15662;49.128;8.520;2022-10-14T00:41:45;100635.53;;;19.94;57.35
28428;BME280;15662;49.128;8.520;2022-10-14T00:46:46;100634.50;;;19.96;57.21
28428;BME280;15662;49.128;8.520;2022-10-14T00:49:40;100627.69;;;19.91;57.23
28428;BME280;15662;49.128;8.520;2022-10-14T00:52:17;100617.28;;;19.84;57.21
28428;BME280;15662;49.128;8.520;2022-10-14T00:54:59;100637.28;;;19.95;57.25
28428;BME280;15662;49.128;8.520;2022-10-14T00:57:29;100638.50;;;19.89;57.51
28428;BME280;15662;49.128;8.520;2022-10-14T01:00:06;100625.75;;;19.93;57.29
28428;BME280;15662;49.128;8.520;2022-10-14T01:02:35;100634.78;;;19.92;57.31
28428;BME280;15662;49.128;8.520;2022-10-14T01:05:05;100632.09;;;19.92;57.53
28428;BME280;15662;49.128;8.520;2022-10-14T01:08:03;100636.50;;;19.93;57.50
28428;BME280;15662;49.128;8.520;2022-10-14T01:10:39;100631.03;;;19.94;57.36
28428;BME280;15662;49.128;8.520;2022-10-14T01:13:25;100631.88;;;19.95;57.54
28428;BME280;15662;49.128;8.520;2022-10-14T01:16:20;100632.78;;;19.95;57.37
28428;BME280;15662;49.128;8.520;2022-10-14T01:22:22;100636.41;;;19.94;57.44
28428;BME280;15662;49.128;8.520;2022-10-14T01:25:17;100627.47;;;19.94;57.27
28428;BME280;15662;49.128;8.520;2022-10-14T01:30:49;100626.50;;;19.95;57.38
28428;BME280;15662;49.128;8.520;2022-10-14T01:33:36;100625.66;;;19.94;57.45
28428;BME280;15662;49.128;8.520;2022-10-14T01:36:34;100630.28;;;19.92;57.48
28428;BME280;15662;49.128;8.520;2022-10-14T01:39:34;100620.25;;;19.94;57.39
28428;BME280;15662;49.128;8.520;2022-10-14T01:42:21;100611.53;;;19.91;57.64
28428;BME280;15662;49.128;8.520;2022-10-14T01:45:13;100621.13;;;19.95;57.60
28428;BME280;15662;49.128;8.520;2022-10-14T01:47:43;100610.06;;;19.71;58.02
28428;BME280;15662;49.128;8.520;2022-10-14T01:50:18;100612.84;;;19.83;57.74
28428;BME280;15662;49.128;8.520;2022-10-14T01:53:03;100613.25;;;19.92;57.58
28428;BME280;15662;49.128;8.520;2022-10-14T01:55:38;100617.00;;;19.89;57.50
28428;BME280;15662;49.128;8.520;2022-10-14T01:58:11;100602.00;;;19.85;57.61
28428;BME280;15662;49.128;8.520;2022-10-14T02:00:40;100609.78;;;19.90;57.81
28428;BME280;15662;49.128;8.520;2022-10-14T02:03:10;100604.34;;;19.91;57.73
28428;BME280;15662;49.128;8.520;2022-10-14T02:11:17;100589.06;;;19.92;57.48
28428;BME280;15662;49.128;8.520;2022-10-14T02:17:05;100586.75;;;19.86;57.73
28428;BME280;15662;49.128;8.520;2022-10-14T02:19:49;100584.06;;;19.86;57.72
28428;BME280;15662;49.128;8.520;2022-10-14T02:22:29;100571.03;;;19.64;57.95
28428;BME280;15662;49.128;8.520;2022-10-14T02:25:18;100568.75;;;19.72;58.04
28428;BME280;15662;49.128;8.520;2022-10-14T02:27:49;100562.56;;;19.70;58.01
28428;BME280;15662;49.128;8.520;2022-10-14T02:30:20;100551.75;;;19.71;58.15
28428;BME280;15662;49.128;8.520;2022-10-14T02:32:56;100555.31;;;19.72;57.89
28428;BME280;15662;49.128;8.520;2022-10-14T02:35:27;100554.44;;;19.55;58.11
28428;BME280;15662;49.128;8.520;2022-10-14T02:37:58;100553.94;;;19.65;58.08
28428;BME280;15662;49.128;8.520;2022-10-14T02:40:39;100545.41;;;19.72;58.00
28428;BME280;15662;49.128;8.520;2022-10-14T02:43:10;100541.00;;;19.71;57.78
28428;BME280;15662;49.128;8.520;2022-10-14T02:45:41;100537.22;;;19.74;57.90
28428;BME280;15662;49.128;8.520;2022-10-14T02:48:11;100548.00;;;19.74;57.93
28428;BME280;15662;49.128;8.520;2022-10-14T02:50:40;100538.19;;;19.73;57.98
28428;BME280;15662;49.128;8.520;2022-10-14T02:53:10;100536.28;;;19.75;58.03
28428;BME280;15662;49.128;8.520;2022-10-14T02:55:45;100535.41;;;19.74;58.04
28428;BME280;15662;49.128;8.520;2022-10-14T02:58:14;100532.66;;;19.76;58.15
28428;BME280;15662;49.128;8.520;2022-10-14T03:00:43;100521.19;;;19.72;57.87
28428;BME280;15662;49.128;8.520;2022-10-14T03:03:13;100528.88;;;19.78;57.80
28428;BME280;15662;49.128;8.520;2022-10-14T03:05:42;100525.22;;;19.79;57.90
28428;BME280;15662;49.128;8.520;2022-10-14T03:08:14;100519.97;;;19.78;57.74
28428;BME280;15662;49.128;8.520;2022-10-14T03:10:47;100510.91;;;19.79;57.63
28428;BME280;15662;49.128;8.520;2022-10-14T03:13:15;100512.16;;;19.73;57.73
28428;BME280;15662;49.128;8.520;2022-10-14T03:15:50;100508.44;;;19.76;57.79
28428;BME280;15662;49.128;8.520;2022-10-14T03:18:19;100499.88;;;19.69;57.95
28428;BME280;15662;49.128;8.520;2022-10-14T03:20:52;100497.00;;;19.72;57.92
28428;BME280;15662;49.128;8.520;2022-10-14T03:23:26;100506.69;;;19.75;57.84
28428;BME280;15662;49.128;8.520;2022-10-14T03:25:55;100498.91;;;19.70;57.66
28428;BME280;15662;49.128;8.520;2022-10-14T03:28:31;100497.09;;;19.71;57.54
28428;BME280;15662;49.128;8.520;2022-10-14T03:31:12;100495.44;;;19.68;57.67
28428;BME280;15662;49.128;8.520;2022-10-14T03:34:02;100487.91;;;19.59;57.71
28428;BME280;15662;49.128;8.520;2022-10-14T03:36:31;100491.56;;;19.58;57.52
28428;BME280;15662;49.128;8.520;2022-10-14T03:39:00;100481.94;;;19.54;57.48
28428;BME280;15662;49.128;8.520;2022-10-14T03:41:40;100484.84;;;19.51;57.84
28428;BME280;15662;49.128;8.520;2022-10-14T03:44:11;100469.06;;;19.45;57.50
28428;BME280;15662;49.128;8.520;2022-10-14T03:46:47;100474.28;;;19.48;57.78
28428;BME280;15662;49.128;8.520;2022-10-14T03:49:15;100480.63;;;19.47;57.84
28428;BME280;15662;49.128;8.520;2022-10-14T03:51:44;100478.69;;;19.49;57.68
28428;BME280;15662;49.128;8.520;2022-10-14T03:54:22;100477.81;;;19.48;57.84
28428;BME280;15662;49.128;8.520;2022-10-14T03:56:50;100472.63;;;19.45;57.78
28428;BME280;15662;49.128;8.520;2022-10-14T03:59:22;100470.28;;;19.25;58.03
28428;BME280;15662;49.128;8.520;2022-10-14T04:01:52;100463.38;;;19.35;57.82
28428;BME280;15662;49.128;8.520;2022-10-14T04:04:24;100460.69;;;19.35;57.93
28428;BME280;15662;49.128;8.520;2022-10-14T04:06:52;100461.50;;;19.37;57.63
28428;BME280;15662;49.128;8.520;2022-10-14T04:09:22;100465.03;;;19.38;57.79
28428;BME280;15662;49.128;8.520;2022-10-14T04:11:50;100463.09;;;19.40;57.77
28428;BME280;15662;49.128;8.520;2022-10-14T04:14:38;100464.19;;;19.37;57.67
28428;BME280;15662;49.128;8.520;2022-10-14T04:17:06;100455.16;;;19.38;57.86
28428;BME280;15662;49.128;8.520;2022-10-14T04:19:34;100453.31;;;19.39;57.74
28428;BME280;15662;49.128;8.520;2022-10-14T04:22:04;100455.16;;;19.38;57.91
28428;BME280;15662;49.128;8.520;2022-10-14T04:24:33;100447.09;;;19.38;57.53
28428;BME280;15662;49.128;8.520;2022-10-14T04:27:02;100452.56;;;19.37;57.69
28428;BME280;15662;49.128;8.520;2022-10-14T04:30:04;100446.50;;;19.33;57.63
28428;BME280;15662;49.128;8.520;2022-10-14T04:32:44;100455.28;;;19.06;57.81
28428;BME280;15662;49.128;8.520;2022-10-14T04:35:13;100448.41;;;19.17;57.83
28428;BME280;15662;49.128;8.520;2022-10-14T04:37:46;100455.22;;;19.22;57.75
28428;BME280;15662;49.128;8.520;2022-10-14T04:40:24;100451.41;;;19.26;57.65
28428;BME280;15662;49.128;8.520;2022-10-14T04:42:57;100450.44;;;19.27;57.58
28428;BME280;15662;49.128;8.520;2022-10-14T04:45:33;100440.66;;;19.26;57.60
28428;BME280;15662;49.128;8.520;2022-10-14T04:48:03;100437.84;;;19.28;57.34
28428;BME280;15662;49.128;8.520;2022-10-14T04:50:38;100435.94;;;19.30;57.21
28428;BME280;15662;49.128;8.520;2022-10-14T04:53:29;100422.88;;;19.24;57.36
28428;BME280;15662;49.128;8.520;2022-10-14T04:56:07;100424.53;;;19.26;57.14
28428;BME280;15662;49.128;8.520;2022-10-14T04:58:42;100415.88;;;19.21;57.25
28428;BME280;15662;49.128;8.520;2022-10-14T05:01:10;100416.63;;;19.23;57.11
28428;BME280;15662;49.128;8.520;2022-10-14T05:03:42;100420.28;;;19.22;57.06
28428;BME280;15662;49.128;8.520;2022-10-14T05:06:11;100411.38;;;19.22;57.26
28428;BME280;15662;49.128;8.520;2022-10-14T05:08:43;100406.00;;;19.22;57.10
28428;BME280;15662;49.128;8.520;2022-10-14T05:11:13;100403.47;;;19.19;57.14
28428;BME280;15662;49.128;8.520;2022-10-14T05:13:47;100405.03;;;19.23;57.30
28428;BME280;15662;49.128;8.520;2022-10-14T05:16:16;100404.06;;;19.24;57.16
28428;BME280;15662;49.128;8.520;2022-10-14T05:18:44;100401.56;;;19.21;57.33
28428;BME280;15662;49.128;8.520;2022-10-14T05:21:13;100398.47;;;19.13;57.27
28428;BME280;15662;49.128;8.520;2022-10-14T05:23:52;100389.84;;;19.07;57.30
28428;BME280;15662;49.128;8.520;2022-10-14T05:26:21;100395.28;;;19.06;57.07
28428;BME280;15662;49.128;8.520;2022-10-14T05:28:53;100385.03;;;18.98;57.19
28428;BME280;15662;49.128;8.520;2022-10-14T05:31:23;100388.94;;;18.93;57.14
28428;BME280;15662;49.128;8.520;2022-10-14T05:34:00;100387.13;;;18.93;57.19
28428;BME280;15662;49.128;8.520;2022-10-14T05:36:28;100384.44;;;18.93;57.43
28428;BME280;15662;49.128;8.520;2022-10-14T05:38:57;100382.59;;;18.94;57.21
28428;BME280;15662;49.128;8.520;2022-10-14T05:41:30;100379.34;;;18.89;57.30
28428;BME280;15662;49.128;8.520;2022-10-14T05:43:59;100382.59;;;18.94;57.25
28428;BME280;15662;49.128;8.520;2022-10-14T05:46:28;100376.56;;;18.90;57.54
28428;BME280;15662;49.128;8.520;2022-10-14T05:48:57;100388.94;;;18.93;57.51
28428;BME280;15662;49.128;8.520;2022-10-14T05:51:28;100390.66;;;18.94;57.63
28428;BME280;15662;49.128;8.520;2022-10-14T05:54:06;100364.84;;;18.91;57.46
28428;BME280;15662;49.128;8.520;2022-10-14T05:56:35;100374.38;;;18.97;57.50
28428;BME280;15662;49.128;8.520;2022-10-14T05:59:05;100380.63;;;18.97;57.64
28428;BME280;15662;49.128;8.520;2022-10-14T06:01:36;100382.34;;;18.98;57.52
28428;BME280;15662;49.128;8.520;2022-10-14T06:04:05;100376.38;;;18.93;57.28
28428;BME280;15662;49.128;8.520;2022-10-14T06:06:35;100389.44;;;18.99;57.52
28428;BME280;15662;49.128;8.520;2022-10-14T06:09:03;100375.41;;;18.94;57.36
28428;BME280;15662;49.128;8.520;2022-10-14T06:11:38;100392.91;;;19.01;57.72
28428;BME280;15662;49.128;8.520;2022-10-14T06:14:07;100381.28;;;19.01;57.62
28428;BME280;15662;49.128;8.520;2022-10-14T06:16:36;100392.69;;;19.04;57.77
28428;BME280;15662;49.128;8.520;2022-10-14T06:19:07;100382.22;;;19.00;57.76
28428;BME280;15662;49.128;8.520;2022-10-14T06:21:35;100378.41;;;19.04;57.81
28428;BME280;15662;49.128;8.520;2022-10-14T06:24:03;100384.53;;;19.06;57.84
28428;BME280;15662;49.128;8.520;2022-10-14T06:26:32;100377.16;;;19.10;57.94
28428;BME280;15662;49.128;8.520;2022-10-14T06:29:01;100375.28;;;19.12;57.83
28428;BME280;15662;49.128;8.520;2022-10-14T06:31:29;100370.25;;;19.05;57.97
28428;BME280;15662;49.128;8.520;2022-10-14T06:34:01;100382.94;;;19.18;58.07
28428;BME280;15662;49.128;8.520;2022-10-14T06:36:33;100381.03;;;19.20;58.21
28428;BME280;15662;49.128;8.520;2022-10-14T06:39:03;100389.00;;;19.21;58.10
28428;BME280;15662;49.128;8.520;2022-10-14T06:41:32;100387.84;;;19.25;57.88
28428;BME280;15662;49.128;8.520;2022-10-14T06:44:00;100384.09;;;19.28;58.12
28428;BME280;15662;49.128;8.520;2022-10-14T06:46:30;100377.94;;;19.26;57.98
28428;BME280;15662;49.128;8.520;2022-10-14T06:48:59;100387.75;;;19.27;58.31
28428;BME280;15662;49.128;8.520;2022-10-14T06:51:27;100374.97;;;19.30;58.24
28428;BME280;15662;49.128;8.520;2022-10-14T06:53:55;100373.19;;;19.31;58.10
28428;BME280;15662;49.128;8.520;2022-10-14T06:56:23;100377.19;;;19.38;58.28
28428;BME280;15662;49.128;8.520;2022-10-14T06:58:55;100374.41;;;19.40;58.05
28428;BME280;15662;49.128;8.520;2022-10-14T07:01:24;100379.31;;;19.47;58.02
28428;BME280;15662;49.128;8.520;2022-10-14T07:03:52;100381.81;;;19.50;58.20
28428;BME280;15662;49.128;8.520;2022-10-14T07:06:23;100380.94;;;19.50;58.21
28428;BME280;15662;49.128;8.520;2022-10-14T07:08:52;100389.41;;;19.58;58.40
28428;BME280;15662;49.128;8.520;2022-10-14T07:11:20;100391.66;;;19.66;58.22
28428;BME280;15662;49.128;8.520;2022-10-14T07:13:48;100387.13;;;19.66;58.19
28428;BME280;15662;49.128;8.520;2022-10-14T07:16:16;100383.09;;;19.73;58.03
28428;BME280;15662;49.128;8.520;2022-10-14T07:18:44;100377.69;;;19.73;57.79
28428;BME280;15662;49.128;8.520;2022-10-14T07:21:12;100383.47;;;19.81;57.71
28428;BME280;15662;49.128;8.520;2022-10-14T07:23:40;100382.09;;;19.89;57.67
28428;BME280;15662;49.128;8.520;2022-10-14T07:26:08;100377.50;;;19.91;57.71
28428;BME280;15662;49.128;8.520;2022-10-14T07:28:36;100378.94;;;19.96;57.53
28428;BME280;15662;49.128;8.520;2022-10-14T07:31:07;100372.56;;;19.97;57.62
28428;BME280;15662;49.128;8.520;2022-10-14T07:33:37;100382.94;;;20.03;57.63
28428;BME280;15662;49.128;8.520;2022-10-14T07:36:09;100385.16;;;20.11;57.35
28428;BME280;15662;49.128;8.520;2022-10-14T07:38:58;100378.97;;;20.09;57.57
28428;BME280;15662;49.128;8.520;2022-10-14T07:41:36;100377.72;;;20.15;57.48
28428;BME280;15662;49.128;8.520;2022-10-14T07:44:06;100381.94;;;20.19;57.29
28428;BME280;15662;49.128;8.520;2022-10-14T07:46:39;100382.50;;;20.24;57.31
28428;BME280;15662;49.128;8.520;2022-10-14T07:49:20;100378.75;;;20.26;57.03
28428;BME280;15662;49.128;8.520;2022-10-14T07:51:48;100377.03;;;20.25;57.25
28428;BME280;15662;49.128;8.520;2022-10-14T07:54:23;100376.81;;;20.28;56.70
28428;BME280;15662;49.128;8.520;2022-10-14T07:56:51;100377.38;;;20.33;56.87
28428;BME280;15662;49.128;8.520;2022-10-14T07:59:20;100374.50;;;20.36;56.80
28428;BME280;15662;49.128;8.520;2022-10-14T08:01:50;100386.41;;;20.47;56.59
28428;BME280;15662;49.128;8.520;2022-10-14T08:04:18;100391.00;;;20.45;56.48
28428;BME280;15662;49.128;8.520;2022-10-14T08:06:47;100375.78;;;20.44;56.50
28428;BME280;15662;49.128;8.520;2022-10-14T08:09:17;100381.56;;;20.52;56.35
28428;BME280;15662;49.128;8.520;2022-10-14T08:11:48;100382.88;;;20.59;56.42
28428;BME280;15662;49.128;8.520;2022-10-14T08:14:16;100371.50;;;20.41;57.11
28428;BME280;15662;49.128;8.520;2022-10-14T08:16:44;100375.78;;;20.58;56.79
28428;BME280;15662;49.128;8.520;2022-10-14T08:19:13;100361.13;;;20.62;56.33
28428;BME280;15662;49.128;8.520;2022-10-14T08:21:42;100361.03;;;20.64;56.50
28428;BME280;15662;49.128;8.520;2022-10-14T08:24:11;100372.25;;;20.70;56.31
28428;BME280;15662;49.128;8.520;2022-10-14T08:26:52;100359.66;;;20.71;55.75
28428;BME280;15662;49.128;8.520;2022-10-14T08:29:20;100358.34;;;20.64;56.25
28428;BME280;15662;49.128;8.520;2022-10-14T08:31:51;100362.56;;;20.68;56.27
28428;BME280;15662;49.128;8.520;2022-10-14T08:34:21;100365.78;;;20.73;56.17
28428;BME280;15662;49.128;8.520;2022-10-14T08:36:51;100369.91;;;20.78;56.02
28428;BME280;15662;49.128;8.520;2022-10-14T08:39:20;100364.31;;;20.81;55.88
28428;BME280;15662;49.128;8.520;2022-10-14T08:44:44;100379.97;;;20.89;55.81
28428;BME280;15662;49.128;8.520;2022-10-14T08:47:19;100352.88;;;20.78;56.08
28428;BME280;15662;49.128;8.520;2022-10-14T08:52:58;100364.22;;;20.96;56.00
28428;BME280;15662;49.128;8.520;2022-10-14T08:55:46;100357.97;;;20.95;55.69
28428;BME280;15662;49.128;8.520;2022-10-14T08:58:29;100349.16;;;21.06;55.50
28428;BME280;15662;49.128;8.520;2022-10-14T09:03:53;100353.13;;;21.13;55.65
28428;BME280;15662;49.128;8.520;2022-10-14T09:06:38;100353.25;;;21.24;55.48
28428;BME280;15662;49.128;8.520;2022-10-14T09:09:39;100353.59;;;21.32;55.55
28428;BME280;15662;49.128;8.520;2022-10-14T09:12:19;100359.31;;;21.41;55.41
28428;BME280;15662;49.128;8.520;2022-10-14T09:21:38;100365.84;;;21.62;55.05
28428;BME280;15662;49.128;8.520;2022-10-14T09:24:31;100355.97;;;21.62;55.23
28428;BME280;15662;49.128;8.520;2022-10-14T09:27:12;100365.13;;;21.73;54.94
28428;BME280;15662;49.128;8.520;2022-10-14T09:30:00;100369.28;;;21.77;54.74
28428;BME280;15662;49.128;8.520;2022-10-14T09:32:53;100356.69;;;21.77;54.69
28428;BME280;15662;49.128;8.520;2022-10-14T09:37:52;100349.84;;;21.84;54.65
28428;BME280;15662;49.128;8.520;2022-10-14T09:40:44;100340.56;;;21.88;54.40
28428;BME280;15662;49.128;8.520;2022-10-14T09:43:15;100333.28;;;21.65;54.94
28428;BME280;15662;49.128;8.520;2022-10-14T09:46:05;100341.25;;;21.79;54.86
28428;BME280;15662;49.128;8.520;2022-10-14T09:48:49;100337.34;;;21.83;54.70
28428;BME280;15662;49.128;8.520;2022-10-14T09:51:30;100336.16;;;21.87;54.64
28428;BME280;15662;49.128;8.520;2022-10-14T09:54:03;100328.78;;;21.89;54.84
28428;BME280;15662;49.128;8.520;2022-10-14T09:56:37;100327.59;;;21.94;54.65
28428;BME280;15662;49.128;8.520;2022-10-14T09:59:20;100321.00;;;21.98;54.38
28428;BME280;15662;49.128;8.520;2022-10-14T10:01:55;100302.53;;;21.92;54.50
28428;BME280;15662;49.128;8.520;2022-10-14T10:04:44;100304.69;;;21.99;54.31
28428;BME280;15662;49.128;8.520;2022-10-14T10:07:34;100315.16;;;22.04;54.27
28428;BME280;15662;49.128;8.520;2022-10-14T10:10:18;100301.53;;;22.05;54.30
28428;BME280;15662;49.128;8.520;2022-10-14T10:12:47;100301.19;;;22.10;54.44
28428;BME280;15662;49.128;8.520;2022-10-14T10:15:20;100293.41;;;22.18;54.17
28428;BME280;15662;49.128;8.520;2022-10-14T10:17:49;100295.88;;;22.21;54.29
28428;BME280;15662;49.128;8.520;2022-10-14T10:20:27;100290.88;;;22.28;53.97
28428;BME280;15662;49.128;8.520;2022-10-14T10:23:23;100293.47;;;22.29;54.03
28428;BME280;15662;49.128;8.520;2022-10-14T10:25:53;100295.31;;;22.29;54.03
28428;BME280;15662;49.128;8.520;2022-10-14T10:28:28;100286.63;;;22.36;53.71
28428;BME280;15662;49.128;8.520;2022-10-14T10:34:37;100289.22;;;22.38;53.54
28428;BME280;15662;49.128;8.520;2022-10-14T10:37:37;100288.09;;;22.40;53.62
28428;BME280;15662;49.128;8.520;2022-10-14T10:43:59;100281.97;;;22.38;53.37
28428;BME280;15662;49.128;8.520;2022-10-14T10:47:27;100278.97;;;22.30;53.10
28428;BME280;15662;49.128;8.520;2022-10-14T10:53:22;100278.59;;;22.24;53.08
28428;BME280;15662;49.128;8.520;2022-10-14T10:56:19;100274.19;;;22.23;53.28
28428;BME280;15662;49.128;8.520;2022-10-14T10:59:34;100266.31;;;22.20;53.50
28428;BME280;15662;49.128;8.520;2022-10-14T11:11:26;100261.66;;;22.22;53.79
28428;BME280;15662;49.128;8.520;2022-10-14T11:21:04;100251.75;;;22.33;53.79
28428;BME280;15662;49.128;8.520;2022-10-14T11:24:10;100230.53;;;22.40;54.00
28428;BME280;15662;49.128;8.520;2022-10-14T11:35:32;100227.78;;;22.75;53.96
28428;BME280;15662;49.128;8.520;2022-10-14T11:39:05;100220.16;;;22.80;54.13
28428;BME280;15662;49.128;8.520;2022-10-14T11:42:05;100213.84;;;22.92;53.94
28428;BME280;15662;49.128;8.520;2022-10-14T11:44:42;100205.50;;;22.96;54.03
28428;BME280;15662;49.128;8.520;2022-10-14T11:47:25;100192.97;;;23.06;53.64
28428;BME280;15662;49.128;8.520;2022-10-14T11:50:16;100198.59;;;23.14;53.29
28428;BME280;15662;49.128;8.520;2022-10-14T11:52:59;100201.78;;;23.19;53.17
28428;BME280;15662;49.128;8.520;2022-10-14T11:55:41;100192.44;;;23.23;53.23
28428;BME280;15662;49.128;8.520;2022-10-14T11:58:17;100175.50;;;23.21;53.37
28428;BME280;15662;49.128;8.520;2022-10-14T12:00:47;100195.25;;;23.33;53.04
28428;BME280;15662;49.128;8.520;2022-10-14T12:03:52;100194.66;;;23.18;53.72
28428;BME280;15662;49.128;8.520;2022-10-14T12:12:03;100188.09;;;23.43;52.90
28428;BME280;15662;49.128;8.520;2022-10-14T12:15:06;100194.00;;;23.48;52.66
28428;BME280;15662;49.128;8.520;2022-10-14T12:18:09;100184.88;;;23.49;52.66
28428;BME280;15662;49.128;8.520;2022-10-14T12:23:44;100162.75;;;23.44;52.40
28428;BME280;15662;49.128;8.520;2022-10-14T12:28:52;100189.72;;;23.46;52.46
28428;BME280;15662;49.128;8.520;2022-10-14T12:31:43;100176.44;;;23.42;52.18
28428;BME280;15662;49.128;8.520;2022-10-14T12:34:25;100159.25;;;23.32;52.00
28428;BME280;15662;49.128;8.520;2022-10-14T12:36:57;100159.47;;;23.29;52.24
28428;BME280;15662;49.128;8.520;2022-10-14T12:39:31;100156.53;;;23.32;52.43
28428;BME280;15662;49.128;8.520;2022-10-14T12:42:12;100165.13;;;23.37;52.17
28428;BME280;15662;49.128;8.520;2022-10-14T12:44:57;100170.06;;;23.32;52.09
28428;BME280;15662;49.128;8.520;2022-10-14T12:47:32;100159.25;;;23.32;52.35
28428;BME280;15662;49.128;8.520;2022-10-14T12:52:47;100166.34;;;23.33;52.59
28428;BME280;15662;49.128;8.520;2022-10-14T12:55:25;100163.41;;;23.36;52.82
28428;BME280;15662;49.128;8.520;2022-10-14T12:58:02;100170.66;;;23.36;53.24
28428;BME280;15662;49.128;8.520;2022-10-14T13:00:38;100175.22;;;23.35;53.34
28428;BME280;15662;49.128;8.520;2022-10-14T13:03:23;100171.53;;;23.36;53.59
28428;BME280;15662;49.128;8.520;2022-10-14T13:06:40;100165.50;;;23.33;53.65
28428;BME280;15662;49.128;8.520;2022-10-14T13:11:44;100164.69;;;23.21;54.31
28428;BME280;15662;49.128;8.520;2022-10-14T13:17:47;100162.75;;;23.44;54.05
28428;BME280;15662;49.128;8.520;2022-10-14T13:30:03;100146.81;;;23.41;53.94
28428;BME280;15662;49.128;8.520;2022-10-14T13:32:58;100152.59;;;23.36;53.80
28428;BME280;15662;49.128;8.520;2022-10-14T13:35:57;100143.63;;;23.25;54.02
28428;BME280;15662;49.128;8.520;2022-10-14T13:38:54;100144.75;;;23.22;54.03
28428;BME280;15662;49.128;8.520;2022-10-14T13:41:46;100154.56;;;23.23;54.08
28428;BME280;15662;49.128;8.520;2022-10-14T13:44:18;100142.41;;;23.29;54.22
28428;BME280;15662;49.128;8.520;2022-10-14T13:46:50;100149.94;;;23.25;54.45
28428;BME280;15662;49.128;8.520;2022-10-14T13:49:25;100146.47;;;23.23;54.70
28428;BME280;15662;49.128;8.520;2022-10-14T13:52:03;100143.03;;;23.21;54.53
28428;BME280;15662;49.128;8.520;2022-10-14T13:54:33;100131.63;;;23.17;54.87
28428;BME280;15662;49.128;8.520;2022-10-14T13:57:11;100128.06;;;23.17;54.94
28428;BME280;15662;49.128;8.520;2022-10-14T14:00:00;100130.78;;;23.06;55.32
28428;BME280;15662;49.128;8.520;2022-10-14T14:02:53;100125.13;;;22.98;55.59
28428;BME280;15662;49.128;8.520;2022-10-14T14:05:34;100121.44;;;22.99;55.53
28428;BME280;15662;49.128;8.520;2022-10-14T14:08:04;100129.06;;;22.94;55.70
28428;BME280;15662;49.128;8.520;2022-10-14T14:11:00;100143.69;;;22.91;55.94
28428;BME280;15662;49.128;8.520;2022-10-14T14:14:20;100143.19;;;22.86;55.91
28428;BME280;15662;49.128;8.520;2022-10-14T14:16:56;100132.25;;;22.76;56.02
28428;BME280;15662;49.128;8.520;2022-10-14T14:19:31;100132.47;;;22.73;56.33
28428;BME280;15662;49.128;8.520;2022-10-14T14:22:24;100121.19;;;22.68;56.28
28428;BME280;15662;49.128;8.520;2022-10-14T14:25:19;100116.38;;;22.60;56.19
28428;BME280;15662;49.128;8.520;2022-10-14T14:28:11;100111.34;;;22.56;56.34
28428;BME280;15662;49.128;8.520;2022-10-14T14:30:50;100108.06;;;22.52;56.45
28428;BME280;15662;49.128;8.520;2022-10-14T14:33:31;100107.16;;;22.40;56.60
28428;BME280;15662;49.128;8.520;2022-10-14T14:36:03;100103.75;;;22.38;56.64
28428;BME280;15662;49.128;8.520;2022-10-14T14:38:56;100098.47;;;22.37;56.86
28428;BME280;15662;49.128;8.520;2022-10-14T14:41:28;100099.44;;;22.36;56.92
28428;BME280;15662;49.128;8.520;2022-10-14T14:44:19;100112.06;;;22.35;57.02
28428;BME280;15662;49.128;8.520;2022-10-14T14:46:57;100111.34;;;22.33;57.00
28428;BME280;15662;49.128;8.520;2022-10-14T14:49:29;100097.09;;;22.31;56.92
28428;BME280;15662;49.128;8.520;2022-10-14T14:52:01;100104.34;;;22.31;57.01
28428;BME280;15662;49.128;8.520;2022-10-14T14:54:31;100105.59;;;22.27;57.20
28428;BME280;15662;49.128;8.520;2022-10-14T14:59:37;100100.31;;;22.36;57.09
28428;BME280;15662;49.128;8.520;2022-10-14T15:02:17;100098.56;;;22.13;57.57
28428;BME280;15662;49.128;8.520;2022-10-14T15:05:00;100079.16;;;22.19;57.63
28428;BME280;15662;49.128;8.520;2022-10-14T15:07:29;100084.94;;;22.26;57.40
28428;BME280;15662;49.128;8.520;2022-10-14T15:10:05;100081.88;;;22.30;57.34
28428;BME280;15662;49.128;8.520;2022-10-14T15:12:37;100075.50;;;22.31;57.44
28428;BME280;15662;49.128;8.520;2022-10-14T15:15:29;100075.13;;;22.36;57.47
28428;BME280;15662;49.128;8.520;2022-10-14T15:18:22;100076.97;;;22.35;57.41
28428;BME280;15662;49.128;8.520;2022-10-14T15:26:34;100068.63;;;22.38;57.50
28428;BME280;15662;49.128;8.520;2022-10-14T15:29:19;100063.59;;;22.34;57.76